createdAt,value
2022-09-22T00:01:25.780Z,90.97
2022-09-22T00:03:56.284Z,91.42
2022-09-22T00:06:26.351Z,91.47
2022-09-22T00:08:56.099Z,90.89
2022-09-22T00:11:25.520Z,91.16
2022-09-22T00:13:56.472Z,90.68
2022-09-22T00:16:28.233Z,90.51
2022-09-22T00:18:56.214Z,90.10
2022-09-22T00:21:27.917Z,89.82
2022-09-22T00:23:56.495Z,89.47
2022-09-22T00:26:25.697Z,88.96
2022-09-22T00:28:53.732Z,89.17
2022-09-22T00:31:24.020Z,88.96
2022-09-22T00:33:55.135Z,88.83
2022-09-22T00:36:25.730Z,89.46
2022-09-22T00:38:55.598Z,88.63
2022-09-22T00:41:25.584Z,88.44
2022-09-22T00:44:34.463Z,88.31
2022-09-22T00:47:07.466Z,87.96
2022-09-22T00:49:43.287Z,88.00
2022-09-22T00:52:12.661Z,88.73
2022-09-22T00:54:40.701Z,88.09
2022-09-22T00:57:13.077Z,87.65
2022-09-22T00:59:42.854Z,88.05
2022-09-22T01:02:12.075Z,88.08
2022-09-22T01:04:42.896Z,87.85
2022-09-22T01:07:13.390Z,87.58
2022-09-22T01:09:41.350Z,88.25
2022-09-22T01:12:09.720Z,89.01
2022-09-22T01:14:52.776Z,89.09
2022-09-22T01:17:34.463Z,89.18
2022-09-22T01:20:26.993Z,89.31
2022-09-22T01:23:25.312Z,88.83
2022-09-22T01:26:13.451Z,89.68
2022-09-22T01:29:03.517Z,89.58
2022-09-22T01:31:38.948Z,89.41
2022-09-22T01:34:13.104Z,89.70
2022-09-22T01:36:53.993Z,89.58
2022-09-22T01:39:27.631Z,89.94
2022-09-22T01:42:02.965Z,90.70
2022-09-22T01:44:35.512Z,89.15
2022-09-22T01:47:10.264Z,88.46
2022-09-22T01:49:44.031Z,89.07
2022-09-22T01:52:17.786Z,88.86
2022-09-22T01:54:51.325Z,88.87
2022-09-22T01:57:25.164Z,89.17
2022-09-22T01:59:57.264Z,89.07
2022-09-22T02:02:33.198Z,87.94
2022-09-22T02:05:06.244Z,88.70
2022-09-22T02:07:40.044Z,89.49
2022-09-22T02:10:11.436Z,89.11
2022-09-22T02:12:40.176Z,88.02
2022-09-22T02:15:30.157Z,88.30
2022-09-22T02:18:06.689Z,88.34
2022-09-22T02:20:35.538Z,87.82
2022-09-22T02:23:03.621Z,88.37
2022-09-22T02:25:32.173Z,88.24
2022-09-22T02:28:00.681Z,88.81
2022-09-22T02:30:29.490Z,89.03
2022-09-22T02:32:59.804Z,88.66
2022-09-22T02:35:31.631Z,88.33
2022-09-22T02:38:05.610Z,88.22
2022-09-22T02:40:45.065Z,88.90
2022-09-22T02:43:19.759Z,90.08
2022-09-22T02:45:54.805Z,90.34
2022-09-22T02:48:27.080Z,91.25
2022-09-22T02:50:56.179Z,92.25
2022-09-22T02:53:24.430Z,93.20
2022-09-22T02:55:52.381Z,93.30
2022-09-22T02:58:20.305Z,94.37
2022-09-22T03:00:48.428Z,93.50
2022-09-22T03:03:16.341Z,93.56
2022-09-22T03:05:45.713Z,92.83
2022-09-22T03:08:13.634Z,92.31
2022-09-22T03:10:41.689Z,92.61
2022-09-22T03:13:16.465Z,92.01
2022-09-22T03:15:45.768Z,91.55
2022-09-22T03:18:14.254Z,91.64
2022-09-22T03:20:42.540Z,91.81
2022-09-22T03:23:11.893Z,92.00
2022-09-22T03:25:40.070Z,90.93
2022-09-22T03:28:08.012Z,90.99
2022-09-22T03:30:37.382Z,91.62
2022-09-22T03:33:05.709Z,91.80
2022-09-22T03:35:33.651Z,92.66
2022-09-22T03:38:01.579Z,92.51
2022-09-22T03:40:31.044Z,92.94
2022-09-22T03:42:58.980Z,93.35
2022-09-22T03:45:28.252Z,94.34
2022-09-22T03:47:56.220Z,94.67
2022-09-22T03:50:24.117Z,94.47
2022-09-22T03:52:52.056Z,94.29
2022-09-22T03:55:20.065Z,95.02
2022-09-22T03:57:49.448Z,95.65
2022-09-22T04:00:18.180Z,95.35
2022-09-22T04:02:46.259Z,94.92
2022-09-22T04:05:14.433Z,95.26
2022-09-22T04:07:42.848Z,95.81
2022-09-22T04:10:10.998Z,94.90
2022-09-22T04:12:38.933Z,95.38
2022-09-22T04:15:10.505Z,96.68
2022-09-22T04:17:38.805Z,96.32
2022-09-22T04:20:08.741Z,96.00
2022-09-22T04:22:37.613Z,96.22
2022-09-22T04:25:06.863Z,96.58
2022-09-22T04:27:34.975Z,96.97
2022-09-22T04:30:03.286Z,96.56
2022-09-22T04:32:32.624Z,97.38
2022-09-22T04:35:00.597Z,96.94
2022-09-22T04:37:29.126Z,97.65
2022-09-22T04:39:57.927Z,97.80
2022-09-22T04:42:26.138Z,97.11
2022-09-22T04:44:57.280Z,97.20
2022-09-22T04:47:25.520Z,96.66
2022-09-22T04:49:55.010Z,96.21
2022-09-22T04:52:23.266Z,97.40
2022-09-22T04:54:51.355Z,98.06
2022-09-22T04:57:20.569Z,97.86
2022-09-22T04:59:48.756Z,97.82
2022-09-22T05:02:16.760Z,99.00
2022-09-22T05:04:44.726Z,99.32
2022-09-22T05:07:15.036Z,100.00
2022-09-22T05:09:43.397Z,100.00
2022-09-22T05:12:11.329Z,100.00
2022-09-22T05:14:39.262Z,100.00
2022-09-22T05:17:07.322Z,100.00
2022-09-22T05:19:35.259Z,100.00
2022-09-22T05:22:03.567Z,99.28
2022-09-22T05:24:33.447Z,98.85
2022-09-22T05:27:01.383Z,99.77
2022-09-22T05:29:29.921Z,97.35
2022-09-22T05:31:57.895Z,96.86
2022-09-22T05:34:25.953Z,93.63
2022-09-22T05:36:53.878Z,94.76
2022-09-22T05:39:21.892Z,94.83
2022-09-22T05:41:51.363Z,93.78
2022-09-22T05:44:19.281Z,93.13
2022-09-22T05:46:47.185Z,93.60
2022-09-22T05:49:15.125Z,91.56
2022-09-22T05:51:43.225Z,90.81
2022-09-22T05:54:11.218Z,89.51
2022-09-22T05:56:39.502Z,88.11
2022-09-22T05:59:09.216Z,88.63
2022-09-22T06:01:39.325Z,88.85
2022-09-22T06:04:07.306Z,90.08
2022-09-22T06:06:35.623Z,89.88
2022-09-22T06:09:03.617Z,90.91
2022-09-22T06:11:31.545Z,88.70
2022-09-22T06:13:59.625Z,90.73
2022-09-22T06:16:29.056Z,88.38
2022-09-22T06:18:57.183Z,86.87
2022-09-22T06:21:25.976Z,86.53
2022-09-22T06:23:54.433Z,87.19
2022-09-22T06:26:22.356Z,83.80
2022-09-22T06:28:50.774Z,84.86
2022-09-22T06:31:18.941Z,83.40
2022-09-22T06:33:50.158Z,82.20
2022-09-22T06:36:24.150Z,80.13
2022-09-22T06:38:53.097Z,81.47
2022-09-22T06:41:21.230Z,81.91
2022-09-22T06:43:50.352Z,80.79
2022-09-22T06:46:20.643Z,82.32
2022-09-22T06:48:54.147Z,81.71
2022-09-22T06:51:22.506Z,80.44
2022-09-22T06:53:58.540Z,80.31
2022-09-22T06:56:28.277Z,80.56
2022-09-22T06:59:09.928Z,81.40
2022-09-22T07:01:39.089Z,81.96
2022-09-22T07:04:09.192Z,81.77
2022-09-22T07:06:38.000Z,81.80
2022-09-22T07:09:07.293Z,81.24
2022-09-22T07:11:39.800Z,79.76
2022-09-22T07:14:09.252Z,82.09
2022-09-22T07:16:37.786Z,80.12
2022-09-22T07:19:06.259Z,84.61
2022-09-22T07:21:38.410Z,81.53
2022-09-22T07:24:08.410Z,82.54
2022-09-22T07:26:39.779Z,83.09
2022-09-22T07:29:11.702Z,81.51
2022-09-22T07:31:41.118Z,82.97
2022-09-22T07:34:09.300Z,80.49
2022-09-22T07:36:41.091Z,78.33
2022-09-22T07:39:11.317Z,78.67
2022-09-22T07:41:43.371Z,79.55
2022-09-22T07:44:30.402Z,74.09
2022-09-22T07:46:58.648Z,73.57
2022-09-22T07:49:26.638Z,75.57
2022-09-22T07:51:57.334Z,74.77
2022-09-22T07:54:27.071Z,70.42
2022-09-22T07:56:58.711Z,72.95
2022-09-22T07:59:27.727Z,70.40
2022-09-22T08:01:56.175Z,65.76
2022-09-22T08:04:26.615Z,64.86
2022-09-22T08:06:56.652Z,65.79
2022-09-22T08:09:26.107Z,70.93
2022-09-22T08:11:55.187Z,68.22
2022-09-22T08:14:24.343Z,66.87
2022-09-22T08:16:53.877Z,64.93
2022-09-22T08:19:23.959Z,65.85
2022-09-22T08:21:54.360Z,62.09
2022-09-22T08:24:24.777Z,64.71
2022-09-22T08:26:54.942Z,59.42
2022-09-22T08:29:23.741Z,58.80
2022-09-22T08:31:52.013Z,60.50
2022-09-22T08:34:20.340Z,60.24
2022-09-22T08:36:48.972Z,54.21
2022-09-22T08:39:18.461Z,56.73
2022-09-22T08:42:00.333Z,57.55
2022-09-22T08:44:32.921Z,57.95
2022-09-22T08:47:03.043Z,57.68
2022-09-22T08:49:54.839Z,55.12
2022-09-22T08:52:31.161Z,53.15
2022-09-22T08:55:00.860Z,54.16
2022-09-22T08:57:46.740Z,54.44
2022-09-22T09:00:17.524Z,55.04
2022-09-22T09:02:49.475Z,55.83
2022-09-22T09:05:54.705Z,56.54
2022-09-22T09:08:48.615Z,59.22
2022-09-22T09:11:30.036Z,56.11
2022-09-22T09:14:12.114Z,54.66
2022-09-22T09:16:47.606Z,52.99
2022-09-22T09:19:20.148Z,55.44
2022-09-22T09:21:52.897Z,56.83
2022-09-22T09:27:22.239Z,56.43
2022-09-22T09:30:00.683Z,59.56
2022-09-22T09:32:35.037Z,54.76
2022-09-22T09:37:34.361Z,53.84
2022-09-22T09:40:04.597Z,50.82
2022-09-22T09:42:36.980Z,54.71
2022-09-22T09:45:13.673Z,51.64
2022-09-22T09:48:01.975Z,51.59
2022-09-22T09:50:32.550Z,53.83
2022-09-22T09:53:01.181Z,55.56
2022-09-22T09:55:29.614Z,57.83
2022-09-22T09:58:07.070Z,55.74
2022-09-22T10:00:54.000Z,55.87
2022-09-22T10:03:28.507Z,54.25
2022-09-22T10:06:02.826Z,56.57
2022-09-22T10:08:36.941Z,51.89
2022-09-22T10:11:06.086Z,49.33
2022-09-22T10:13:36.471Z,51.79
2022-09-22T10:16:22.201Z,48.49
2022-09-22T10:18:52.317Z,46.57
2022-09-22T10:21:21.669Z,49.08
2022-09-22T10:23:51.100Z,50.62
2022-09-22T10:26:26.650Z,50.51
2022-09-22T10:29:18.524Z,47.47
2022-09-22T10:32:15.113Z,48.23
2022-09-22T10:37:26.053Z,50.93
2022-09-22T10:39:55.705Z,48.80
2022-09-22T10:42:34.413Z,49.12
2022-09-22T10:45:07.305Z,51.07
2022-09-22T10:47:49.187Z,50.92
2022-09-22T10:50:36.803Z,53.35
2022-09-22T10:53:22.085Z,52.34
2022-09-22T10:55:55.948Z,51.97
2022-09-22T10:58:28.492Z,51.39
2022-09-22T11:01:09.438Z,49.52
2022-09-22T11:04:03.737Z,49.09
2022-09-22T11:07:07.494Z,48.72
2022-09-22T11:09:59.319Z,50.51
2022-09-22T11:12:38.979Z,52.27
2022-09-22T11:15:34.173Z,49.71
2022-09-22T11:18:27.930Z,51.98
2022-09-22T11:21:07.884Z,50.63
2022-09-22T11:24:06.626Z,49.60
2022-09-22T11:26:48.576Z,48.43
2022-09-22T11:29:50.880Z,47.76
2022-09-22T11:32:42.109Z,48.55
2022-09-22T11:35:42.113Z,50.16
2022-09-22T11:38:29.926Z,50.46
2022-09-22T11:41:14.436Z,47.39
2022-09-22T11:44:04.264Z,50.13
2022-09-22T11:46:47.926Z,45.76
2022-09-22T11:49:30.526Z,49.26
2022-09-22T11:52:16.507Z,50.32
2022-09-22T11:55:05.313Z,48.02
2022-09-22T11:57:38.796Z,46.57
2022-09-22T12:00:16.539Z,48.54
2022-09-22T12:02:50.083Z,46.52
2022-09-22T12:05:22.248Z,47.85
2022-09-22T12:07:56.364Z,48.72
2022-09-22T12:10:33.641Z,48.77
2022-09-22T12:13:02.898Z,45.18
2022-09-22T12:15:38.189Z,46.11
2022-09-22T12:18:11.489Z,49.31
2022-09-22T12:20:49.377Z,47.33
2022-09-22T12:23:32.380Z,46.51
2022-09-22T12:26:06.143Z,47.82
2022-09-22T12:28:39.431Z,47.81
2022-09-22T12:31:13.096Z,52.86
2022-09-22T12:33:46.969Z,50.33
2022-09-22T12:36:17.343Z,50.08
2022-09-22T12:38:46.169Z,45.97
2022-09-22T12:41:21.597Z,46.83
2022-09-22T12:43:50.215Z,47.34
2022-09-22T12:46:25.875Z,42.76
2022-09-22T12:48:54.314Z,43.90
2022-09-22T12:51:33.897Z,43.64
2022-09-22T12:54:39.154Z,43.52
2022-09-22T12:57:28.045Z,43.53
2022-09-22T12:59:59.930Z,46.97
2022-09-22T13:02:31.711Z,49.62
2022-09-22T13:05:37.653Z,44.19
2022-09-22T13:08:06.287Z,45.48
2022-09-22T13:10:59.335Z,49.69
2022-09-22T13:13:43.330Z,48.35
2022-09-22T13:16:34.720Z,48.93
2022-09-22T13:19:04.946Z,50.51
2022-09-22T13:21:35.053Z,51.81
2022-09-22T13:24:05.340Z,46.59
2022-09-22T13:26:35.835Z,51.66
2022-09-22T13:29:12.546Z,44.52
2022-09-22T13:31:43.265Z,45.43
2022-09-22T13:34:36.270Z,51.56
2022-09-22T13:37:08.197Z,51.76
2022-09-22T13:39:43.439Z,46.36
2022-09-22T13:42:19.784Z,46.49
2022-09-22T13:44:56.099Z,50.68
2022-09-22T13:47:27.217Z,53.49
2022-09-22T13:49:58.255Z,55.43
2022-09-22T13:52:30.236Z,54.39
2022-09-22T13:55:01.804Z,54.74
2022-09-22T13:57:32.230Z,51.57
2022-09-22T14:00:02.292Z,51.09
2022-09-22T14:02:32.652Z,51.73
2022-09-22T14:05:04.006Z,47.06
2022-09-22T14:07:45.048Z,53.47
2022-09-22T14:10:19.738Z,51.78
2022-09-22T14:12:48.929Z,55.60
2022-09-22T14:15:44.046Z,53.62
2022-09-22T14:18:21.146Z,55.15
2022-09-22T14:20:49.596Z,52.48
2022-09-22T14:23:24.975Z,55.17
2022-09-22T14:25:53.075Z,52.96
2022-09-22T14:28:26.301Z,56.12
2022-09-22T14:30:56.258Z,55.67
2022-09-22T14:33:28.817Z,55.60
2022-09-22T14:36:02.092Z,53.94
2022-09-22T14:38:34.488Z,52.90
2022-09-22T14:41:03.193Z,53.69
2022-09-22T14:43:35.599Z,55.20
2022-09-22T14:46:22.940Z,55.57
2022-09-22T14:48:51.656Z,55.63
2022-09-22T14:51:21.540Z,57.03
2022-09-22T14:53:52.831Z,56.90
2022-09-22T14:56:27.762Z,54.34
2022-09-22T14:58:58.060Z,54.45
2022-09-22T15:01:48.606Z,54.26
2022-09-22T15:04:21.310Z,55.59
2022-09-22T15:06:50.355Z,57.83
2022-09-22T15:09:25.535Z,57.19
2022-09-22T15:11:54.920Z,56.82
2022-09-22T15:14:41.405Z,57.23
2022-09-22T15:17:54.941Z,58.38
2022-09-22T15:20:25.029Z,58.38
2022-09-22T15:22:54.211Z,59.07
2022-09-22T15:25:22.770Z,59.88
2022-09-22T15:27:53.490Z,59.65
2022-09-22T15:30:22.945Z,59.91
2022-09-22T15:32:52.340Z,59.25
2022-09-22T15:35:20.956Z,59.09
2022-09-22T15:37:50.953Z,58.37
2022-09-22T15:40:21.402Z,58.68
2022-09-22T15:43:09.042Z,60.05
2022-09-22T15:45:38.964Z,59.38
2022-09-22T15:48:10.443Z,59.43
2022-09-22T15:50:39.082Z,60.42
2022-09-22T15:53:07.030Z,60.86
2022-09-22T15:55:35.268Z,60.90
2022-09-22T15:58:07.474Z,61.61
2022-09-22T16:00:36.630Z,60.92
2022-09-22T16:03:15.754Z,62.02
2022-09-22T16:05:44.954Z,62.70
2022-09-22T16:08:16.748Z,62.64
2022-09-22T16:10:46.214Z,63.16
2022-09-22T16:13:14.360Z,64.63
2022-09-22T16:15:42.367Z,63.74
2022-09-22T16:18:11.790Z,64.55
2022-09-22T16:20:39.781Z,65.05
2022-09-22T16:23:07.860Z,65.33
2022-09-22T16:25:35.912Z,66.26
2022-09-22T16:28:04.869Z,64.98
2022-09-22T16:30:32.879Z,63.34
2022-09-22T16:33:01.005Z,63.26
2022-09-22T16:35:30.281Z,63.25
2022-09-22T16:37:58.332Z,63.19
2022-09-22T16:40:29.628Z,64.87
2022-09-22T16:42:57.715Z,64.79
2022-09-22T16:45:43.361Z,65.99
2022-09-22T16:48:11.350Z,66.58
2022-09-22T16:50:43.476Z,64.71
2022-09-22T16:53:14.479Z,65.64
2022-09-22T16:55:49.553Z,65.74
2022-09-22T16:58:17.550Z,66.07
2022-09-22T17:00:45.547Z,66.09
2022-09-22T17:03:13.514Z,66.56
2022-09-22T17:05:42.813Z,67.10
2022-09-22T17:08:11.032Z,66.46
2022-09-22T17:10:38.936Z,66.60
2022-09-22T17:13:07.928Z,66.33
2022-09-22T17:15:36.877Z,65.88
2022-09-22T17:18:05.277Z,65.80
2022-09-22T17:20:33.206Z,66.42
2022-09-22T17:23:02.757Z,66.60
2022-09-22T17:25:30.670Z,66.78
2022-09-22T17:27:59.150Z,67.26
2022-09-22T17:30:27.071Z,67.71
2022-09-22T17:32:55.011Z,67.43
2022-09-22T17:35:22.926Z,67.81
2022-09-22T17:37:52.459Z,67.59
2022-09-22T17:40:22.846Z,67.51
2022-09-22T17:42:50.834Z,68.15
2022-09-22T17:45:18.895Z,68.11
2022-09-22T17:48:04.554Z,67.88
2022-09-22T17:50:50.009Z,68.31
2022-09-22T17:53:35.424Z,68.08
2022-09-22T17:56:05.862Z,68.26
2022-09-22T17:58:34.051Z,70.32
2022-09-22T18:01:02.119Z,69.41
2022-09-22T18:03:30.057Z,69.24
2022-09-22T18:05:58.502Z,67.72
2022-09-22T18:08:26.504Z,67.52
2022-09-22T18:10:54.492Z,67.22
2022-09-22T18:13:23.766Z,67.20
2022-09-22T18:15:52.375Z,69.95
2022-09-22T18:18:20.413Z,71.24
2022-09-22T18:20:48.487Z,72.05
2022-09-22T18:23:16.793Z,72.43
2022-09-22T18:25:45.818Z,67.67
2022-09-22T18:28:13.815Z,64.48
2022-09-22T18:30:43.369Z,63.35
2022-09-22T18:33:13.539Z,63.62
2022-09-22T18:35:45.984Z,64.15
2022-09-22T18:38:14.194Z,62.04
2022-09-22T18:40:42.345Z,62.44
2022-09-22T18:43:10.492Z,61.99
2022-09-22T18:45:38.801Z,63.02
2022-09-22T18:48:08.268Z,62.61
2022-09-22T18:50:36.410Z,63.98
2022-09-22T18:53:04.393Z,62.73
2022-09-22T18:55:32.572Z,61.97
2022-09-22T18:58:01.124Z,62.54
2022-09-22T19:00:29.293Z,62.51
2022-09-22T19:02:58.515Z,62.12
2022-09-22T19:05:28.504Z,62.59
2022-09-22T19:07:59.456Z,61.95
2022-09-22T19:10:27.604Z,61.71
2022-09-22T19:12:55.616Z,62.96
2022-09-22T19:15:25.377Z,63.52
2022-09-22T19:17:53.295Z,64.31
2022-09-22T19:20:24.154Z,64.72
2022-09-22T19:22:54.137Z,66.39
2022-09-22T19:25:23.174Z,66.94
2022-09-22T19:27:52.385Z,69.24
2022-09-22T19:30:23.387Z,68.85
2022-09-22T19:32:52.765Z,70.93
2022-09-22T19:35:21.837Z,71.23
2022-09-22T19:37:51.928Z,73.43
2022-09-22T19:40:24.486Z,74.34
2022-09-22T19:42:53.222Z,76.68
2022-09-22T19:45:21.483Z,78.51
2022-09-22T19:47:49.405Z,77.71
2022-09-22T19:50:18.028Z,77.87
2022-09-22T19:52:45.961Z,81.49
2022-09-22T19:55:16.122Z,83.26
2022-09-22T19:57:48.819Z,79.79
2022-09-22T20:00:18.344Z,80.61
2022-09-22T20:02:46.498Z,80.17
2022-09-22T20:05:22.485Z,80.18
2022-09-22T20:07:50.553Z,80.83
2022-09-22T20:10:22.560Z,82.07
2022-09-22T20:12:52.783Z,82.52
2022-09-22T20:15:20.919Z,81.33
2022-09-22T20:17:49.110Z,81.14
2022-09-22T20:20:19.766Z,81.84
2022-09-22T20:22:48.769Z,81.33
2022-09-22T20:25:25.000Z,79.54
2022-09-22T20:27:56.206Z,80.02
2022-09-22T20:30:24.421Z,80.06
2022-09-22T20:32:52.385Z,80.56
2022-09-22T20:35:21.970Z,83.06
2022-09-22T20:37:51.610Z,83.67
2022-09-22T20:40:22.148Z,83.29
2022-09-22T20:42:51.586Z,81.96
2022-09-22T20:45:22.968Z,82.39
2022-09-22T20:47:50.943Z,84.85
2022-09-22T20:50:19.732Z,83.27
2022-09-22T20:52:48.006Z,81.40
2022-09-22T20:55:17.250Z,83.05
2022-09-22T20:57:45.181Z,83.17
2022-09-22T21:00:15.407Z,84.31
2022-09-22T21:02:44.962Z,83.10
2022-09-22T21:05:12.957Z,82.92
2022-09-22T21:07:40.972Z,82.30
2022-09-22T21:10:27.138Z,82.04
2022-09-22T21:12:56.651Z,82.44
2022-09-22T21:15:24.693Z,80.47
2022-09-22T21:17:54.041Z,82.18
2022-09-22T21:20:22.072Z,82.06
2022-09-22T21:22:50.036Z,82.73
2022-09-22T21:25:18.077Z,82.36
2022-09-22T21:27:47.152Z,82.80
2022-09-22T21:30:15.277Z,83.29
2022-09-22T21:32:43.221Z,81.98
2022-09-22T21:35:16.841Z,83.01
2022-09-22T21:37:45.157Z,82.82
2022-09-22T21:40:13.348Z,83.37
2022-09-22T21:42:41.508Z,83.28
2022-09-22T21:45:10.643Z,83.23
2022-09-22T21:47:38.613Z,83.08
2022-09-22T21:50:07.698Z,83.40
2022-09-22T21:52:38.738Z,83.11
2022-09-22T21:55:08.186Z,84.32
2022-09-22T21:57:36.116Z,84.72
2022-09-22T22:00:05.741Z,85.43
2022-09-22T22:02:53.676Z,84.50
2022-09-22T22:05:21.593Z,84.72
2022-09-22T22:07:50.924Z,84.69
2022-09-22T22:10:19.256Z,84.85
2022-09-22T22:12:47.182Z,85.04
2022-09-22T22:15:15.628Z,84.56
2022-09-22T22:17:43.634Z,84.97
2022-09-22T22:20:11.585Z,84.80
2022-09-22T22:22:39.499Z,84.70
2022-09-22T22:25:17.919Z,84.19
2022-09-22T22:27:46.003Z,83.65
2022-09-22T22:30:14.495Z,83.51
2022-09-22T22:32:42.492Z,83.81
2022-09-22T22:35:11.772Z,83.75
2022-09-22T22:37:40.005Z,81.21
2022-09-22T22:40:10.454Z,81.04
2022-09-22T22:42:38.432Z,81.57
2022-09-22T22:45:07.103Z,81.28
2022-09-22T22:47:35.050Z,81.31
2022-09-22T22:50:02.983Z,80.93
2022-09-22T22:52:31.372Z,80.95
2022-09-22T22:54:59.290Z,80.98
2022-09-22T22:57:28.885Z,81.01
2022-09-22T22:59:57.191Z,81.45
2022-09-22T23:02:25.205Z,81.58
2022-09-22T23:04:53.719Z,81.42
2022-09-22T23:07:21.681Z,81.48
2022-09-22T23:10:06.161Z,81.61
2022-09-22T23:12:36.322Z,82.25
2022-09-22T23:15:04.763Z,82.69
2022-09-22T23:17:33.503Z,82.70
2022-09-22T23:20:01.418Z,82.80
2022-09-22T23:22:29.358Z,82.84
2022-09-22T23:24:57.393Z,82.56
2022-09-22T23:27:25.640Z,83.38
2022-09-22T23:29:54.946Z,83.89
2022-09-22T23:32:23.748Z,84.01
2022-09-22T23:34:51.669Z,84.53
2022-09-22T23:37:19.782Z,84.63
2022-09-22T23:39:47.692Z,84.80
2022-09-22T23:42:16.022Z,84.82
2022-09-22T23:44:43.946Z,85.63
2022-09-22T23:47:16.206Z,85.64
2022-09-22T23:49:44.731Z,85.00
2022-09-22T23:52:12.827Z,85.28
2022-09-22T23:54:40.804Z,84.97
2022-09-22T23:57:08.753Z,85.66
2022-09-22T23:59:36.711Z,85.82
